This is the latest recevied weather packets stored in our database for station/object DB5WY-13. If no packets are shown the sender has not sent any weather packets the latest 10 day(s).
| Time | Temp. | Humidity | Pressure | Rain* | Wind** | Luminosity | Snow |
|---|---|---|---|---|---|---|---|
| 1777894801 | 28.89° C | 35% | 1015.4 hPa | 0 mm | - | - | - |
| 1777894201 | 31.11° C | 33% | 1015.4 hPa | 0 mm | - | - | - |
| 1777893601 | 30° C | 35% | 1015.5 hPa | 0 mm | - | - | - |
| 1777893001 | 28.89° C | 36% | 1015.6 hPa | 0 mm | - | - | - |
| 1777892401 | 25.56° C | 42% | 1015.5 hPa | 0 mm | - | - | - |
| 1777891801 | 25° C | 42% | 1015.7 hPa | 0 mm | - | - | - |
| 1777891201 | 26.11° C | 40% | 1015.8 hPa | 0 mm | - | - | - |
| 1777890601 | 27.78° C | 39% | 1015.9 hPa | 0 mm | - | - | - |
| 1777890001 | 25° C | 42% | 1015.8 hPa | 0 mm | - | - | - |
| 1777889402 | 26.11° C | 41% | 1015.6 hPa | 0 mm | - | - | - |
| 1777888801 | 25.56° C | 41% | 1015.8 hPa | 0 mm | - | - | - |
| 1777888202 | 26.67° C | 41% | 1015.9 hPa | 0 mm | - | - | - |
| 1777887602 | 25.56° C | 42% | 1015.6 hPa | 0 mm | - | - | - |
| 1777887002 | 25° C | 43% | 1015.8 hPa | 0 mm | - | - | - |
| 1777886402 | 24.44° C | 44% | 1015.9 hPa | 0 mm | - | - | - |
| 1777885802 | 23.33° C | 46% | 1015.7 hPa | 0 mm | - | - | - |
| 1777885202 | 22.78° C | 46% | 1015.7 hPa | 0 mm | - | - | - |
| 1777884602 | 22.78° C | 46% | 1015.9 hPa | 0 mm | - | - | - |
| 1777884002 | 22.78° C | 45% | 1015.9 hPa | 0 mm | - | - | - |
| 1777883402 | 22.22° C | 47% | 1016 hPa | 0 mm | - | - | - |
| 1777882802 | 21.67° C | 48% | 1015.6 hPa | 0 mm | - | - | - |
| 1777882202 | 21.11° C | 49% | 1015.6 hPa | 0 mm | - | - | - |
| 1777881602 | 20° C | 51% | 1015.5 hPa | 0 mm | - | - | - |
| 1777881002 | 19.44° C | 53% | 1015.5 hPa | 0 mm | - | - | - |
| 1777880402 | 17.78° C | 57% | 1015.6 hPa | 0 mm | - | - | - |
* Rain latest hour (hover to see other rain measurements)
** Current wind speed in m/s (hover to see current wind gust speed)